Time;durP1;ratioP1;P1;durP2;ratioP2;P2;SDS_P1;SDS_P2;PMS_P1;PMS_P2;Temp;Humidity;BMP_temperature;BMP_pressure;BME280_temperature;BME280_humidity;BME280_pressure;Samples;Min_cycle;Max_cycle;Signal;HPM_P1;HPM_P2
2023/07/23 00:00:34;;;;;;;2.58;1.70;;;;;;;;;;4954360;28;20042;-82
2023/07/23 00:02:59;;;;;;;5.07;1.50;;;;;;;;;;4961076;28;20122;-82
2023/07/23 00:05:25;;;;;;;3.38;1.80;;;;;;;;;;4977875;28;20043;-83
2023/07/23 00:07:51;;;;;;;6.25;1.70;;;;;;;;;;4958219;28;20027;-81
2023/07/23 00:10:16;;;;;;;2.88;1.70;;;;;;;;;;4975750;28;20065;-82
2023/07/23 00:12:42;;;;;;;1.90;1.60;;;;;;;;;;4977812;28;20027;-83
2023/07/23 00:15:08;;;;;;;2.88;1.80;;;;;;;;;;4980024;28;20026;-81
2023/07/23 00:17:33;;;;;;;2.63;1.83;;;;;;;;;;4978220;28;20033;-81
2023/07/23 00:19:58;;;;;;;2.30;1.80;;;;;;;;;;4977873;28;20029;-83
2023/07/23 00:22:25;;;;;;;2.83;1.88;;;;;;;;;;4960491;28;20026;-82
2023/07/23 00:24:56;;;;;;;3.17;1.88;;;;;;;;;;4960749;28;20026;-82
2023/07/23 00:27:23;;;;;;;3.42;1.75;;;;;;;;;;4958564;28;20023;-82
2023/07/23 00:29:48;;;;;;;2.55;1.75;;;;;;;;;;4963387;28;20116;-80
2023/07/23 00:32:13;;;;;;;4.82;1.77;;;;;;;;;;4976019;28;20084;-83
2023/07/23 00:34:39;;;;;;;3.05;2.00;;;;;;;;;;4960544;28;20074;-81
2023/07/23 00:37:04;;;;;;;3.90;1.83;;;;;;;;;;4979377;28;20027;-81
2023/07/23 00:39:30;;;;;;;2.25;1.70;;;;;;;;;;4982479;28;20030;-82
2023/07/23 00:41:56;;;;;;;4.18;1.63;;;;;;;;;;4967468;28;20089;-81
2023/07/23 00:44:21;;;;;;;2.58;1.75;;;;;;;;;;4978537;28;20034;-81
2023/07/23 00:46:47;;;;;;;4.95;1.80;;;;;;;;;;4958719;28;20793;-81
2023/07/23 00:49:13;;;;;;;7.35;2.00;;;;;;;;;;4976065;28;20037;-81
2023/07/23 00:51:39;;;;;;;3.50;2.00;;;;;;;;;;4971164;28;20037;-82
2023/07/23 00:54:05;;;;;;;7.72;1.80;;;;;;;;;;4969877;28;20046;-82
2023/07/23 00:56:31;;;;;;;2.90;1.92;;;;;;;;;;4968120;28;20073;-81
2023/07/23 00:58:56;;;;;;;2.00;1.80;;;;;;;;;;4975047;28;20022;-82
2023/07/23 01:01:22;;;;;;;4.05;1.73;;;;;;;;;;4977529;28;20054;-80
2023/07/23 01:03:49;;;;;;;4.95;2.17;;;;;;;;;;4975919;28;20066;-80
2023/07/23 01:06:17;;;;;;;1.85;1.52;;;;;;;;;;4957329;28;20529;-81
2023/07/23 01:08:44;;;;;;;2.15;1.55;;;;;;;;;;4956415;28;20090;-81
2023/07/23 01:11:10;;;;;;;3.17;1.83;;;;;;;;;;4967275;28;20031;-82
2023/07/23 01:13:37;;;;;;;3.22;1.67;;;;;;;;;;4955875;28;20106;-81
2023/07/23 01:16:07;;;;;;;2.55;1.60;;;;;;;;;;4973819;28;20023;-81
2023/07/23 01:18:36;;;;;;;2.20;1.73;;;;;;;;;;4971134;28;20022;-80
2023/07/23 01:21:02;;;;;;;2.10;1.50;;;;;;;;;;4971784;28;20034;-80
2023/07/23 01:23:27;;;;;;;1.90;1.65;;;;;;;;;;4975486;28;20062;-80
2023/07/23 01:25:52;;;;;;;4.13;1.92;;;;;;;;;;4972652;28;20042;-81
2023/07/23 01:28:18;;;;;;;2.40;1.90;;;;;;;;;;4970584;28;20050;-81
2023/07/23 01:30:43;;;;;;;1.98;1.45;;;;;;;;;;4971175;28;20026;-82
2023/07/23 01:33:09;;;;;;;3.17;1.80;;;;;;;;;;4970631;28;20487;-81
2023/07/23 01:35:35;;;;;;;2.22;1.90;;;;;;;;;;4974556;28;20026;-81
2023/07/23 01:38:02;;;;;;;3.88;1.70;;;;;;;;;;4974594;28;20031;-81
2023/07/23 01:40:27;;;;;;;2.60;2.00;;;;;;;;;;4968687;28;20031;-81
2023/07/23 01:42:52;;;;;;;2.22;1.65;;;;;;;;;;4970761;28;20037;-81
2023/07/23 01:45:18;;;;;;;2.17;1.58;;;;;;;;;;4955354;29;20027;-81
2023/07/23 01:47:43;;;;;;;3.42;1.85;;;;;;;;;;4971500;28;20045;-82
2023/07/23 01:50:09;;;;;;;2.58;1.70;;;;;;;;;;4954605;29;20027;-81
2023/07/23 01:52:34;;;;;;;2.30;1.73;;;;;;;;;;4964654;28;20029;-81
2023/07/23 01:54:59;;;;;;;2.95;1.88;;;;;;;;;;4975825;28;20029;-80
2023/07/23 01:57:25;;;;;;;3.05;1.75;;;;;;;;;;4963103;28;20034;-80
2023/07/23 01:59:50;;;;;;;3.08;2.00;;;;;;;;;;4972580;28;20615;-80
2023/07/23 02:02:16;;;;;;;2.95;1.80;;;;;;;;;;4950643;29;20039;-81
2023/07/23 02:04:41;;;;;;;2.58;1.80;;;;;;;;;;4986923;28;20492;-80
2023/07/23 02:07:06;;;;;;;2.65;1.70;;;;;;;;;;4955312;28;20489;-80
2023/07/23 02:09:32;;;;;;;3.38;1.67;;;;;;;;;;4972774;28;20026;-81
2023/07/23 02:11:57;;;;;;;2.55;1.83;;;;;;;;;;4946890;28;20484;-81
2023/07/23 02:14:22;;;;;;;3.97;1.63;;;;;;;;;;4977473;28;20030;-81
2023/07/23 02:16:48;;;;;;;4.85;1.95;;;;;;;;;;4974581;28;20026;-81
2023/07/23 02:19:13;;;;;;;2.10;1.67;;;;;;;;;;4957772;28;20031;-80
2023/07/23 02:21:39;;;;;;;5.15;1.95;;;;;;;;;;4950127;28;20122;-80
2023/07/23 02:24:05;;;;;;;3.22;1.85;;;;;;;;;;4973883;28;20082;-80
2023/07/23 02:26:30;;;;;;;2.90;1.83;;;;;;;;;;4974734;28;20117;-79
2023/07/23 02:28:55;;;;;;;5.32;1.80;;;;;;;;;;4957189;28;20030;-80
2023/07/23 02:31:21;;;;;;;2.00;1.80;;;;;;;;;;4969604;28;20031;-81
2023/07/23 02:33:46;;;;;;;2.92;1.90;;;;;;;;;;4971423;28;20039;-80
2023/07/23 02:36:12;;;;;;;1.77;1.50;;;;;;;;;;4974734;28;20022;-81
2023/07/23 02:38:37;;;;;;;1.98;1.80;;;;;;;;;;4957242;28;20034;-81
2023/07/23 02:41:02;;;;;;;6.00;1.90;;;;;;;;;;4974836;28;20022;-80
2023/07/23 02:43:29;;;;;;;2.75;1.73;;;;;;;;;;4957887;28;20110;-80
2023/07/23 02:45:54;;;;;;;2.55;1.75;;;;;;;;;;4969665;28;20485;-81
2023/07/23 02:48:20;;;;;;;2.55;1.65;;;;;;;;;;4979771;28;20034;-79
2023/07/23 02:50:45;;;;;;;1.73;1.63;;;;;;;;;;4985820;28;20035;-81
2023/07/23 02:53:10;;;;;;;2.55;1.73;;;;;;;;;;4969679;28;20050;-81
2023/07/23 02:55:36;;;;;;;3.28;1.73;;;;;;;;;;4991976;28;20050;-80
2023/07/23 02:58:03;;;;;;;2.30;1.80;;;;;;;;;;4992119;28;20026;-81
2023/07/23 03:00:32;;;;;;;2.47;1.60;;;;;;;;;;4970942;29;20042;-81
2023/07/23 03:02:57;;;;;;;3.97;1.75;;;;;;;;;;4959745;28;20038;-81
2023/07/23 03:05:24;;;;;;;2.75;1.80;;;;;;;;;;4954566;29;20552;-81
2023/07/23 03:07:51;;;;;;;1.80;1.50;;;;;;;;;;4981459;28;20061;-82
2023/07/23 03:10:16;;;;;;;2.00;1.50;;;;;;;;;;4975375;28;20054;-82
2023/07/23 03:12:41;;;;;;;2.70;1.80;;;;;;;;;;4960563;28;20034;-82
2023/07/23 03:15:07;;;;;;;2.55;1.85;;;;;;;;;;4961909;28;20031;-83
2023/07/23 03:17:33;;;;;;;1.70;1.27;;;;;;;;;;4958116;28;20440;-83
2023/07/23 03:19:58;;;;;;;3.03;1.80;;;;;;;;;;4962310;28;20564;-82
2023/07/23 03:22:23;;;;;;;2.60;1.45;;;;;;;;;;4978316;28;20037;-82
2023/07/23 03:24:50;;;;;;;2.65;1.92;;;;;;;;;;4976178;28;20126;-83
2023/07/23 03:27:15;;;;;;;2.90;2.22;;;;;;;;;;4975372;28;20026;-83
2023/07/23 03:29:40;;;;;;;4.22;1.80;;;;;;;;;;4955885;28;20034;-81
2023/07/23 03:32:06;;;;;;;2.85;1.60;;;;;;;;;;4980317;28;20033;-82
2023/07/23 03:34:31;;;;;;;3.17;1.60;;;;;;;;;;4961707;28;20023;-83
2023/07/23 03:36:56;;;;;;;5.15;1.85;;;;;;;;;;4957828;28;20165;-82
2023/07/23 03:39:23;;;;;;;2.38;1.73;;;;;;;;;;4958627;28;20089;-81
2023/07/23 03:41:49;;;;;;;3.10;1.75;;;;;;;;;;4991911;28;20014;-83
2023/07/23 03:44:15;;;;;;;2.47;1.58;;;;;;;;;;4962865;28;20039;-82
2023/07/23 03:46:45;;;;;;;2.28;1.70;;;;;;;;;;4977838;28;20037;-81
2023/07/23 03:49:11;;;;;;;4.78;1.88;;;;;;;;;;4978760;28;20438;-80
2023/07/23 03:51:37;;;;;;;3.95;1.63;;;;;;;;;;4979846;28;20454;-81
2023/07/23 03:54:02;;;;;;;4.22;1.60;;;;;;;;;;4954650;29;20764;-80
2023/07/23 03:56:27;;;;;;;3.42;2.00;;;;;;;;;;4971004;28;20090;-81
2023/07/23 03:58:53;;;;;;;2.33;1.80;;;;;;;;;;4977335;28;20033;-81
2023/07/23 04:01:18;;;;;;;4.30;2.00;;;;;;;;;;4945494;28;20032;-81
2023/07/23 04:03:44;;;;;;;2.95;1.98;;;;;;;;;;4960061;28;20030;-81
2023/07/23 04:06:09;;;;;;;2.78;1.73;;;;;;;;;;4974956;28;20400;-80
2023/07/23 04:08:35;;;;;;;3.28;1.60;;;;;;;;;;4967555;28;20035;-79
2023/07/23 04:11:00;;;;;;;2.20;1.83;;;;;;;;;;4958702;28;20027;-81
2023/07/23 04:13:25;;;;;;;3.17;1.88;;;;;;;;;;4992922;28;20027;-80
2023/07/23 04:15:51;;;;;;;2.97;1.92;;;;;;;;;;4993205;28;20094;-80
2023/07/23 04:18:17;;;;;;;2.95;1.77;;;;;;;;;;4987917;28;20078;-80
2023/07/23 04:20:42;;;;;;;3.13;2.00;;;;;;;;;;4986162;28;20026;-80
2023/07/23 04:23:08;;;;;;;1.70;1.60;;;;;;;;;;5003059;28;20046;-81
2023/07/23 04:25:33;;;;;;;2.55;1.83;;;;;;;;;;4984973;28;20026;-81
2023/07/23 04:27:59;;;;;;;3.55;1.60;;;;;;;;;;4985941;28;20075;-81
2023/07/23 04:30:30;;;;;;;3.13;1.85;;;;;;;;;;4983470;28;20026;-81
2023/07/23 04:32:55;;;;;;;2.22;2.03;;;;;;;;;;4986352;28;20109;-80
2023/07/23 04:35:21;;;;;;;2.30;1.60;;;;;;;;;;4985960;28;20058;-81
2023/07/23 04:37:46;;;;;;;2.85;1.80;;;;;;;;;;4995091;28;20036;-82
2023/07/23 04:40:12;;;;;;;3.90;1.67;;;;;;;;;;4978083;28;20019;-81
2023/07/23 04:42:39;;;;;;;2.85;1.63;;;;;;;;;;4959550;28;20481;-81
2023/07/23 04:45:05;;;;;;;2.63;1.80;;;;;;;;;;4973168;28;20046;-80
2023/07/23 04:47:30;;;;;;;5.13;1.75;;;;;;;;;;4961047;28;20031;-80
2023/07/23 04:49:57;;;;;;;3.28;1.95;;;;;;;;;;4975608;28;20042;-81
2023/07/23 04:52:23;;;;;;;3.00;1.67;;;;;;;;;;4945702;29;20027;-81
2023/07/23 04:54:48;;;;;;;2.58;1.90;;;;;;;;;;4956050;28;20071;-79
2023/07/23 04:57:13;;;;;;;2.65;1.73;;;;;;;;;;4960178;28;20105;-81
2023/07/23 04:59:39;;;;;;;2.42;1.60;;;;;;;;;;4976163;28;20114;-81
2023/07/23 05:02:04;;;;;;;1.85;1.70;;;;;;;;;;4959362;28;20086;-81
2023/07/23 05:04:30;;;;;;;2.95;2.00;;;;;;;;;;4983551;28;20412;-80
2023/07/23 05:06:55;;;;;;;3.22;1.83;;;;;;;;;;4970413;28;20038;-81
2023/07/23 05:09:20;;;;;;;2.10;1.70;;;;;;;;;;4976758;28;20034;-81
2023/07/23 05:11:46;;;;;;;2.08;1.73;;;;;;;;;;4969971;28;20039;-82
2023/07/23 05:14:11;;;;;;;2.30;1.83;;;;;;;;;;4971507;28;20057;-81
2023/07/23 05:16:37;;;;;;;1.98;1.67;;;;;;;;;;4968751;28;20094;-81
2023/07/23 05:19:03;;;;;;;3.17;1.77;;;;;;;;;;4984905;28;20550;-81
2023/07/23 05:21:29;;;;;;;2.40;1.67;;;;;;;;;;4945535;29;20031;-81
2023/07/23 05:23:54;;;;;;;2.25;1.90;;;;;;;;;;4965547;28;20031;-82
2023/07/23 05:26:19;;;;;;;3.65;1.85;;;;;;;;;;4972538;28;20062;-81
2023/07/23 05:28:44;;;;;;;2.42;1.80;;;;;;;;;;4971392;28;20045;-80
2023/07/23 05:31:10;;;;;;;2.42;1.85;;;;;;;;;;4994862;28;20050;-81
2023/07/23 05:33:35;;;;;;;2.72;1.67;;;;;;;;;;4993913;28;20105;-81
2023/07/23 05:36:01;;;;;;;4.65;1.60;;;;;;;;;;4972156;28;20046;-80
2023/07/23 05:38:26;;;;;;;1.92;1.55;;;;;;;;;;4981664;28;20049;-81
2023/07/23 05:40:58;;;;;;;2.75;1.65;;;;;;;;;;4972414;28;20038;-80
2023/07/23 05:43:24;;;;;;;2.15;1.60;;;;;;;;;;4966292;28;20042;-79
2023/07/23 05:45:49;;;;;;;2.10;1.70;;;;;;;;;;4964550;28;20505;-79
2023/07/23 05:48:14;;;;;;;2.78;1.50;;;;;;;;;;4970311;28;20555;-79
2023/07/23 05:50:40;;;;;;;1.98;1.65;;;;;;;;;;4967838;28;20035;-80
2023/07/23 05:53:05;;;;;;;2.05;1.60;;;;;;;;;;4977921;28;20038;-80
2023/07/23 05:55:30;;;;;;;2.42;1.70;;;;;;;;;;4964302;28;20019;-79
2023/07/23 05:57:56;;;;;;;2.83;1.70;;;;;;;;;;4960540;28;20049;-80
2023/07/23 06:00:24;;;;;;;1.63;1.48;;;;;;;;;;4961507;28;20045;-81
2023/07/23 06:02:49;;;;;;;2.50;1.70;;;;;;;;;;4977657;28;20034;-80
2023/07/23 06:05:15;;;;;;;3.25;1.70;;;;;;;;;;4996976;28;20045;-82
2023/07/23 06:07:40;;;;;;;2.33;1.67;;;;;;;;;;4985554;28;20033;-82
2023/07/23 06:10:06;;;;;;;3.70;1.98;;;;;;;;;;4995714;28;20029;-80
2023/07/23 06:12:31;;;;;;;1.80;1.50;;;;;;;;;;4989352;28;20031;-82
2023/07/23 06:14:57;;;;;;;2.72;1.73;;;;;;;;;;4975343;28;20030;-82
2023/07/23 06:17:22;;;;;;;5.13;1.80;;;;;;;;;;4970185;28;20058;-82
2023/07/23 06:19:48;;;;;;;2.33;1.50;;;;;;;;;;4975971;28;20027;-81
2023/07/23 06:22:13;;;;;;;4.47;1.88;;;;;;;;;;4955848;28;20098;-83
2023/07/23 06:24:38;;;;;;;2.53;1.88;;;;;;;;;;4968950;28;20023;-82
2023/07/23 06:27:04;;;;;;;3.80;2.03;;;;;;;;;;4975414;28;20022;-82
2023/07/23 06:29:30;;;;;;;2.70;1.98;;;;;;;;;;4977054;28;20034;-82
2023/07/23 06:31:56;;;;;;;2.17;1.88;;;;;;;;;;4984134;28;20041;-82
2023/07/23 06:34:21;;;;;;;3.20;2.38;;;;;;;;;;4957556;28;20390;-83
2023/07/23 06:36:47;;;;;;;3.33;1.88;;;;;;;;;;4961167;28;20034;-82
2023/07/23 06:39:13;;;;;;;2.70;1.85;;;;;;;;;;4984532;28;20499;-85
2023/07/23 06:41:40;;;;;;;4.03;1.67;;;;;;;;;;4971489;28;20502;-87
2023/07/23 06:44:05;;;;;;;4.25;1.90;;;;;;;;;;4959060;28;20086;-84
2023/07/23 06:46:31;;;;;;;2.47;1.58;;;;;;;;;;4955476;28;20031;-86
2023/07/23 06:48:56;;;;;;;3.53;1.90;;;;;;;;;;4976617;28;20027;-83
2023/07/23 06:51:21;;;;;;;1.80;1.70;;;;;;;;;;4966731;28;20035;-84
2023/07/23 06:53:47;;;;;;;2.13;1.67;;;;;;;;;;4973023;28;20397;-84
2023/07/23 06:56:16;;;;;;;3.63;1.85;;;;;;;;;;4972401;28;20026;-84
2023/07/23 06:58:42;;;;;;;2.17;1.60;;;;;;;;;;4951538;29;20475;-84
2023/07/23 07:01:08;;;;;;;2.58;1.80;;;;;;;;;;4946579;28;20102;-83
2023/07/23 07:03:34;;;;;;;2.05;1.63;;;;;;;;;;4949669;29;20027;-83
2023/07/23 07:06:00;;;;;;;4.13;2.50;;;;;;;;;;4967117;28;20031;-84
2023/07/23 07:08:27;;;;;;;1.88;1.33;;;;;;;;;;4970878;28;20489;-83
2023/07/23 07:10:58;;;;;;;7.60;1.70;;;;;;;;;;4957450;29;20027;-82
2023/07/23 07:13:23;;;;;;;2.80;1.92;;;;;;;;;;4944668;28;20093;-84
2023/07/23 07:15:48;;;;;;;5.90;1.83;;;;;;;;;;4977018;28;20022;-83
2023/07/23 07:18:14;;;;;;;3.22;1.90;;;;;;;;;;4976927;28;20022;-81
2023/07/23 07:20:39;;;;;;;3.40;1.70;;;;;;;;;;4977344;28;20026;-82
2023/07/23 07:23:05;;;;;;;4.28;1.98;;;;;;;;;;4942557;28;20078;-83
2023/07/23 07:25:30;;;;;;;2.30;2.00;;;;;;;;;;4971884;28;20080;-83
2023/07/23 07:27:55;;;;;;;4.03;1.70;;;;;;;;;;4977375;28;20035;-83
2023/07/23 07:30:21;;;;;;;2.38;1.65;;;;;;;;;;4984145;28;20392;-81
2023/07/23 07:32:46;;;;;;;2.13;1.80;;;;;;;;;;4975533;28;20642;-80
2023/07/23 07:35:11;;;;;;;2.47;1.77;;;;;;;;;;4985705;28;20030;-81
2023/07/23 07:37:37;;;;;;;1.98;1.80;;;;;;;;;;4983507;28;20026;-82
2023/07/23 07:40:03;;;;;;;3.65;1.83;;;;;;;;;;4983099;28;20035;-82
2023/07/23 07:42:28;;;;;;;2.28;1.85;;;;;;;;;;4971611;28;20138;-82
2023/07/23 07:44:53;;;;;;;1.55;1.42;;;;;;;;;;4961696;28;20036;-82
2023/07/23 07:47:19;;;;;;;2.25;1.90;;;;;;;;;;4984904;28;20030;-83
2023/07/23 07:49:44;;;;;;;3.60;1.70;;;;;;;;;;4975135;28;20046;-81
2023/07/23 07:52:11;;;;;;;2.08;1.70;;;;;;;;;;4983006;28;20050;-81
2023/07/23 07:54:37;;;;;;;2.08;1.80;;;;;;;;;;4963197;28;20037;-83
2023/07/23 07:57:03;;;;;;;2.97;1.80;;;;;;;;;;4951955;28;20031;-82
2023/07/23 07:59:29;;;;;;;2.00;1.60;;;;;;;;;;4983961;28;20065;-82
2023/07/23 08:01:55;;;;;;;3.63;1.75;;;;;;;;;;4987713;28;20023;-84
2023/07/23 08:04:21;;;;;;;2.83;1.80;;;;;;;;;;4981862;28;20050;-82
2023/07/23 08:06:48;;;;;;;2.10;1.70;;;;;;;;;;4991026;28;20058;-83
2023/07/23 08:09:16;;;;;;;2.17;1.40;;;;;;;;;;4972677;28;20121;-86
2023/07/23 08:11:42;;;;;;;2.22;1.75;;;;;;;;;;4990015;28;20464;-84
2023/07/23 08:14:09;;;;;;;2.40;1.77;;;;;;;;;;4963225;28;20501;-83
2023/07/23 08:16:35;;;;;;;1.92;1.60;;;;;;;;;;4958207;28;20030;-83
2023/07/23 08:19:01;;;;;;;2.20;1.85;;;;;;;;;;4986846;28;20109;-82
2023/07/23 08:21:27;;;;;;;1.80;1.63;;;;;;;;;;4999046;28;20114;-83
2023/07/23 08:23:52;;;;;;;7.75;1.58;;;;;;;;;;4963758;28;20050;-85
2023/07/23 08:26:23;;;;;;;4.10;1.63;;;;;;;;;;4981136;28;20030;-83
2023/07/23 08:28:51;;;;;;;3.40;1.90;;;;;;;;;;4988951;28;20485;-83
2023/07/23 08:31:18;;;;;;;4.53;1.50;;;;;;;;;;4980190;28;20109;-83
2023/07/23 08:33:46;;;;;;;1.45;1.35;;;;;;;;;;4963621;28;20053;-83
2023/07/23 08:36:12;;;;;;;1.60;1.33;;;;;;;;;;4960307;28;20027;-85
2023/07/23 08:38:38;;;;;;;2.05;1.60;;;;;;;;;;4987969;28;20036;-84
2023/07/23 08:41:15;;;;;;;2.17;1.60;;;;;;;;;;4988590;28;20109;-83
2023/07/23 08:44:35;;;;;;;1.50;1.40;;;;;;;;;;4986710;28;20084;-84
2023/07/23 08:47:11;;;;;;;1.42;1.15;;;;;;;;;;4902277;29;20085;-84
2023/07/23 08:49:40;;;;;;;1.85;1.55;;;;;;;;;;4965859;28;20034;-83
2023/07/23 08:52:06;;;;;;;1.88;1.50;;;;;;;;;;4963290;28;20038;-84
2023/07/23 08:54:32;;;;;;;4.18;1.40;;;;;;;;;;4968071;28;20039;-84
2023/07/23 08:56:58;;;;;;;2.25;1.45;;;;;;;;;;4959943;28;20041;-84
2023/07/23 08:59:26;;;;;;;4.97;1.35;;;;;;;;;;4997677;28;20090;-83
2023/07/23 09:01:53;;;;;;;1.23;1.20;;;;;;;;;;4986661;28;20018;-82
2023/07/23 09:04:18;;;;;;;2.80;1.30;;;;;;;;;;4985957;28;20035;-81
2023/07/23 09:06:44;;;;;;;1.73;1.20;;;;;;;;;;4977102;28;20037;-83
2023/07/23 09:09:11;;;;;;;1.58;1.33;;;;;;;;;;4969995;28;20500;-83
2023/07/23 09:11:37;;;;;;;1.77;1.52;;;;;;;;;;4993355;28;20019;-84
2023/07/23 09:14:08;;;;;;;3.72;1.40;;;;;;;;;;4979325;28;20033;-85
2023/07/23 09:16:38;;;;;;;1.77;1.60;;;;;;;;;;4973315;28;20030;-83
2023/07/23 09:19:04;;;;;;;1.63;1.45;;;;;;;;;;4977063;28;20434;-85
2023/07/23 09:21:30;;;;;;;2.72;1.30;;;;;;;;;;4969164;28;20030;-83
2023/07/23 09:23:57;;;;;;;1.15;1.05;;;;;;;;;;4981879;28;20118;-84
2023/07/23 09:26:25;;;;;;;1.50;1.40;;;;;;;;;;4971392;28;20027;-84
2023/07/23 09:28:52;;;;;;;1.52;1.40;;;;;;;;;;4967315;28;20041;-84
2023/07/23 09:31:22;;;;;;;1.58;1.40;;;;;;;;;;4954096;28;20500;-85
2023/07/23 09:33:51;;;;;;;1.50;1.30;;;;;;;;;;4973216;28;20038;-83
2023/07/23 09:36:19;;;;;;;2.03;1.20;;;;;;;;;;4979960;28;20028;-84
2023/07/23 09:38:55;;;;;;;1.90;1.52;;;;;;;;;;4959367;29;20031;-85
2023/07/23 09:41:21;;;;;;;3.75;1.98;;;;;;;;;;4981544;28;20532;-84
2023/07/23 09:43:46;;;;;;;1.70;1.25;;;;;;;;;;4988553;28;20026;-85
2023/07/23 09:46:11;;;;;;;1.35;1.25;;;;;;;;;;4993669;28;20030;-85
2023/07/23 09:48:45;;;;;;;1.50;1.40;;;;;;;;;;4978313;28;20029;-84
2023/07/23 09:51:12;;;;;;;1.58;1.30;;;;;;;;;;4985305;28;20050;-82
2023/07/23 09:53:45;;;;;;;3.13;1.30;;;;;;;;;;4991191;28;20026;-82
2023/07/23 09:56:11;;;;;;;3.50;1.50;;;;;;;;;;4985420;28;20019;-82
2023/07/23 09:58:37;;;;;;;1.58;1.20;;;;;;;;;;4951154;28;20023;-82
2023/07/23 10:01:03;;;;;;;1.30;1.20;;;;;;;;;;4972412;28;20030;-83
2023/07/23 10:03:31;;;;;;;1.45;1.30;;;;;;;;;;4967671;28;20085;-84
2023/07/23 10:05:57;;;;;;;1.52;1.40;;;;;;;;;;4957596;29;20031;-85
2023/07/23 10:08:24;;;;;;;1.40;1.30;;;;;;;;;;4970010;28;20148;-86
2023/07/23 10:10:49;;;;;;;4.97;1.60;;;;;;;;;;4973916;28;20063;-85
2023/07/23 10:13:15;;;;;;;3.13;1.55;;;;;;;;;;4977632;28;20041;-84
2023/07/23 10:15:41;;;;;;;1.83;1.40;;;;;;;;;;4964787;28;20023;-84
2023/07/23 10:18:22;;;;;;;2.22;1.67;;;;;;;;;;4956787;28;20018;-85
2023/07/23 10:20:48;;;;;;;1.40;1.30;;;;;;;;;;4988503;28;20256;-85
2023/07/23 10:23:22;;;;;;;2.22;1.40;;;;;;;;;;4986350;28;20046;-85
2023/07/23 10:25:50;;;;;;;2.50;1.67;;;;;;;;;;4971080;28;20061;-84
2023/07/23 10:28:26;;;;;;;1.50;1.40;;;;;;;;;;4968673;28;20091;-85
2023/07/23 10:31:30;;;;;;;3.92;1.70;;;;;;;;;;4968674;28;20030;-86
2023/07/23 10:34:27;;;;;;;1.40;1.30;;;;;;;;;;4979814;28;20015;-84
2023/07/23 10:37:17;;;;;;;1.48;1.38;;;;;;;;;;4962063;28;20022;-86
2023/07/23 10:39:45;;;;;;;1.60;1.50;;;;;;;;;;4976805;28;20022;-85
2023/07/23 10:42:33;;;;;;;2.30;1.52;;;;;;;;;;4972189;28;20007;-85
2023/07/23 10:45:24;;;;;;;3.35;1.55;;;;;;;;;;4984655;28;20049;-84
2023/07/23 10:47:50;;;;;;;2.45;1.70;;;;;;;;;;4985203;28;20037;-86
2023/07/23 10:50:18;;;;;;;1.70;1.40;;;;;;;;;;4978151;28;20030;-85
2023/07/23 10:52:49;;;;;;;4.00;1.80;;;;;;;;;;4965623;28;20024;-87
2023/07/23 10:55:45;;;;;;;2.08;1.55;;;;;;;;;;4972241;28;20099;-86
2023/07/23 10:58:15;;;;;;;1.83;1.60;;;;;;;;;;4975973;28;20035;-84
2023/07/23 11:00:43;;;;;;;2.33;1.50;;;;;;;;;;4979608;28;20019;-85
2023/07/23 11:03:12;;;;;;;5.45;1.88;;;;;;;;;;4976633;28;20319;-85
2023/07/23 11:05:42;;;;;;;4.80;1.52;;;;;;;;;;4973128;28;20058;-85
2023/07/23 11:08:15;;;;;;;1.75;1.65;;;;;;;;;;4984472;28;20037;-85
2023/07/23 11:11:01;;;;;;;3.05;1.67;;;;;;;;;;4976210;28;20030;-85
2023/07/23 11:13:35;;;;;;;3.25;1.80;;;;;;;;;;4988388;28;20022;-85
2023/07/23 11:16:01;;;;;;;1.92;1.60;;;;;;;;;;4968225;28;20381;-85
2023/07/23 11:18:33;;;;;;;3.13;1.70;;;;;;;;;;4978968;28;20028;-85
2023/07/23 11:21:05;;;;;;;2.17;1.83;;;;;;;;;;4961248;28;20027;-85
2023/07/23 11:23:31;;;;;;;5.13;1.70;;;;;;;;;;4977985;28;20105;-85
2023/07/23 11:25:58;;;;;;;1.95;1.70;;;;;;;;;;4959436;28;20475;-86
2023/07/23 11:28:24;;;;;;;2.65;1.75;;;;;;;;;;4984055;28;20110;-84
2023/07/23 11:30:53;;;;;;;1.50;1.40;;;;;;;;;;4953586;28;20066;-85
2023/07/23 11:33:21;;;;;;;2.30;1.70;;;;;;;;;;4945461;28;20081;-84
2023/07/23 11:35:48;;;;;;;3.72;2.05;;;;;;;;;;4960044;28;20110;-86
2023/07/23 11:38:13;;;;;;;1.90;1.70;;;;;;;;;;4973376;28;20125;-85
2023/07/23 11:40:39;;;;;;;2.35;1.63;;;;;;;;;;4965874;28;20023;-84
2023/07/23 11:43:06;;;;;;;4.50;1.65;;;;;;;;;;4985998;28;20019;-84
2023/07/23 11:45:42;;;;;;;2.20;1.83;;;;;;;;;;4994114;28;20041;-85
2023/07/23 11:48:14;;;;;;;3.28;1.70;;;;;;;;;;4990515;28;20035;-85
2023/07/23 11:50:39;;;;;;;3.28;1.65;;;;;;;;;;4982427;28;20026;-85
2023/07/23 11:53:05;;;;;;;1.98;1.77;;;;;;;;;;4978184;28;20030;-85
2023/07/23 11:55:31;;;;;;;1.73;1.63;;;;;;;;;;4966516;28;20023;-85
2023/07/23 11:57:58;;;;;;;3.47;1.90;;;;;;;;;;4961139;28;20019;-84
2023/07/23 12:00:28;;;;;;;3.08;1.83;;;;;;;;;;4975658;28;20030;-84
2023/07/23 12:02:54;;;;;;;2.10;1.70;;;;;;;;;;4962666;28;20093;-84
2023/07/23 12:05:20;;;;;;;1.85;1.70;;;;;;;;;;4982713;28;20481;-85
2023/07/23 12:07:46;;;;;;;2.83;2.00;;;;;;;;;;4959269;29;20031;-86
2023/07/23 12:10:15;;;;;;;3.88;2.03;;;;;;;;;;4961093;28;20050;-84
2023/07/23 12:12:48;;;;;;;3.38;1.98;;;;;;;;;;4959404;28;20051;-85
2023/07/23 12:15:15;;;;;;;2.40;1.70;;;;;;;;;;4976126;28;20019;-85
2023/07/23 12:17:41;;;;;;;2.20;2.00;;;;;;;;;;4961056;28;20026;-85
2023/07/23 12:20:09;;;;;;;2.08;1.63;;;;;;;;;;4957810;29;20034;-86
2023/07/23 12:22:50;;;;;;;3.47;1.63;;;;;;;;;;4978717;28;20454;-85
2023/07/23 12:25:16;;;;;;;;;;;;;;;;;;4971100;28;20163;-85
2023/07/23 12:27:41;;;;;;;2.00;1.70;;;;;;;;;;4958388;28;19976;-85
2023/07/23 12:30:07;;;;;;;1.75;1.60;;;;;;;;;;4966984;28;20026;-85
2023/07/23 12:32:34;;;;;;;2.38;1.80;;;;;;;;;;4973946;28;20557;-84
2023/07/23 12:34:59;;;;;;;4.20;2.00;;;;;;;;;;4979619;28;20022;-86
2023/07/23 12:37:25;;;;;;;2.63;2.00;;;;;;;;;;4980474;28;20511;-86
2023/07/23 12:39:51;;;;;;;1.65;1.55;;;;;;;;;;4957110;28;20631;-85
2023/07/23 12:42:16;;;;;;;2.10;1.67;;;;;;;;;;4960688;28;20038;-84
2023/07/23 12:44:41;;;;;;;2.47;1.70;;;;;;;;;;4974953;28;20030;-85
2023/07/23 12:47:07;;;;;;;2.13;1.80;;;;;;;;;;4960547;28;20473;-83
2023/07/23 12:49:32;;;;;;;2.58;1.50;;;;;;;;;;4959783;28;20054;-84
2023/07/23 12:51:59;;;;;;;2.40;1.75;;;;;;;;;;4977980;28;20029;-85
2023/07/23 12:54:24;;;;;;;2.75;1.90;;;;;;;;;;4961067;28;20511;-85
2023/07/23 12:56:49;;;;;;;2.90;1.73;;;;;;;;;;4992475;28;20095;-85
2023/07/23 12:59:15;;;;;;;3.22;1.80;;;;;;;;;;4966923;28;20035;-85
2023/07/23 13:01:41;;;;;;;2.25;1.90;;;;;;;;;;4971147;28;20027;-83
2023/07/23 13:04:06;;;;;;;2.30;2.10;;;;;;;;;;4979361;28;20093;-83
2023/07/23 13:06:32;;;;;;;2.40;1.77;;;;;;;;;;4985432;28;20030;-84
2023/07/23 13:08:57;;;;;;;2.38;1.80;;;;;;;;;;4956870;28;20058;-84
2023/07/23 13:11:23;;;;;;;4.85;1.98;;;;;;;;;;4978479;28;20026;-85
2023/07/23 13:13:49;;;;;;;3.45;2.22;;;;;;;;;;4965601;28;20058;-83
2023/07/23 13:16:23;;;;;;;1.98;1.65;;;;;;;;;;4958612;28;20379;-84
2023/07/23 13:18:49;;;;;;;3.42;1.90;;;;;;;;;;4973935;28;20665;-85
2023/07/23 13:21:14;;;;;;;7.30;1.98;;;;;;;;;;4971573;28;20031;-84
2023/07/23 13:23:40;;;;;;;3.78;1.90;;;;;;;;;;4971373;28;20120;-85
2023/07/23 13:26:05;;;;;;;2.47;1.90;;;;;;;;;;4972412;28;20074;-84
2023/07/23 13:28:30;;;;;;;2.17;1.95;;;;;;;;;;4962833;28;20039;-84
2023/07/23 13:33:24;;;;;;;2.40;1.73;;;;;;;;;;4937890;23;1158980;-78
2023/07/23 13:35:51;;;;;;;2.90;1.90;;;;;;;;;;4959332;28;20029;-77
2023/07/23 13:38:16;;;;;;;2.97;2.53;;;;;;;;;;4976346;28;20026;-78
2023/07/23 13:40:42;;;;;;;2.63;1.90;;;;;;;;;;4977552;28;20516;-78
2023/07/23 13:43:07;;;;;;;4.20;2.10;;;;;;;;;;4962200;28;20121;-79
2023/07/23 13:45:33;;;;;;;3.20;2.00;;;;;;;;;;4976030;28;20030;-79
2023/07/23 13:47:58;;;;;;;2.03;1.80;;;;;;;;;;4979283;28;20023;-78
2023/07/23 13:50:24;;;;;;;2.92;2.05;;;;;;;;;;4957561;28;20042;-79
2023/07/23 13:52:49;;;;;;;3.70;2.20;;;;;;;;;;4958702;29;20031;-78
2023/07/23 13:55:14;;;;;;;3.00;2.30;;;;;;;;;;4972818;28;20023;-78
2023/07/23 13:57:40;;;;;;;4.68;2.30;;;;;;;;;;4968393;28;20030;-79
2023/07/23 14:00:06;;;;;;;3.00;2.22;;;;;;;;;;4946391;29;20019;-78
2023/07/23 14:02:31;;;;;;;4.60;2.30;;;;;;;;;;4969541;28;20035;-78
2023/07/23 14:04:58;;;;;;;2.95;2.15;;;;;;;;;;4969284;28;20022;-79
2023/07/23 14:07:23;;;;;;;4.15;2.15;;;;;;;;;;4977967;28;20026;-79
2023/07/23 14:09:49;;;;;;;4.03;2.38;;;;;;;;;;4976847;28;20043;-80
2023/07/23 14:12:14;;;;;;;4.00;2.00;;;;;;;;;;4971639;28;20063;-79
2023/07/23 14:14:40;;;;;;;3.65;2.10;;;;;;;;;;4972576;28;20027;-79
2023/07/23 14:17:05;;;;;;;2.95;2.08;;;;;;;;;;4977850;28;20036;-78
2023/07/23 14:19:30;;;;;;;4.40;2.20;;;;;;;;;;4962468;28;20039;-79
2023/07/23 14:21:57;;;;;;;3.88;1.98;;;;;;;;;;4960438;29;20110;-79
2023/07/23 14:24:22;;;;;;;3.08;2.20;;;;;;;;;;4976957;28;20090;-79
2023/07/23 14:26:48;;;;;;;3.03;2.35;;;;;;;;;;4977474;28;20109;-78
2023/07/23 14:29:13;;;;;;;3.28;2.35;;;;;;;;;;4975398;28;20082;-79
2023/07/23 14:31:38;;;;;;;2.92;2.17;;;;;;;;;;4971118;28;20053;-79
2023/07/23 14:34:04;;;;;;;3.85;2.50;;;;;;;;;;4972203;28;20030;-79
2023/07/23 14:36:29;;;;;;;3.50;2.38;;;;;;;;;;4972533;28;20031;-78
2023/07/23 14:38:54;;;;;;;3.50;2.15;;;;;;;;;;4976598;28;20066;-78
2023/07/23 14:41:20;;;;;;;3.38;2.25;;;;;;;;;;4967292;28;20058;-80
2023/07/23 14:43:45;;;;;;;3.90;2.58;;;;;;;;;;4975470;28;20050;-79